Time;durP1;ratioP1;P1;durP2;ratioP2;P2;SDS_P1;SDS_P2;PMS_P1;PMS_P2;Temp;Humidity;BMP_temperature;BMP_pressure;BME280_temperature;BME280_humidity;BME280_pressure;Samples;Min_cycle;Max_cycle;Signal;HPM_P1;HPM_P2
2022/02/14 00:02:06;;;;;;;4.13;1.25;;;;;;;0.09;81.86;98242.59;5051761;28;20029;-78
2022/02/14 00:04:32;;;;;;;1.77;1.67;;;;;;;0.07;81.52;98242.59;5051445;28;20021;-78
2022/02/14 00:06:57;;;;;;;3.22;2.38;;;;;;;0.05;81.80;98241.72;5051643;28;20029;-78
2022/02/14 00:09:23;;;;;;;1.10;1.10;;;;;;;0.01;81.49;98234.03;5051828;28;20028;-78
2022/02/14 00:11:48;;;;;;;1.63;1.52;;;;;;;-0.01;81.65;98241.59;5051653;28;20028;-78
2022/02/14 00:14:13;;;;;;;1.33;1.30;;;;;;;0.08;81.18;98231.56;5051417;28;20037;-80
2022/02/14 00:16:39;;;;;;;0.98;0.98;;;;;;;-0.07;81.67;98231.34;5051340;28;20017;-78
2022/02/14 00:19:04;;;;;;;1.52;1.52;;;;;;;0.08;81.28;98216.28;5051701;28;20132;-77
2022/02/14 00:21:30;;;;;;;1.00;1.00;;;;;;;0.06;80.95;98217.97;5055575;28;20064;-77
2022/02/14 00:23:55;;;;;;;1.25;1.15;;;;;;;0.01;81.20;98218.75;5055560;28;20029;-77
2022/02/14 00:26:20;;;;;;;1.00;1.00;;;;;;;0.12;81.12;98199.38;5055398;28;20025;-78
2022/02/14 00:28:46;;;;;;;2.42;1.50;;;;;;;0.09;81.02;98218.00;5055531;28;20017;-78
2022/02/14 00:31:11;;;;;;;1.70;1.60;;;;;;;0.20;80.13;98207.97;5055429;28;20070;-78
2022/02/14 00:33:37;;;;;;;2.55;2.35;;;;;;;0.13;80.27;98213.81;5053917;28;20028;-78
2022/02/14 00:36:02;;;;;;;1.35;1.30;;;;;;;0.22;80.52;98204.59;5055109;28;20025;-78
2022/02/14 00:38:28;;;;;;;2.10;2.00;;;;;;;0.23;79.73;98206.31;5055228;28;20025;-78
2022/02/14 00:40:53;;;;;;;1.45;1.35;;;;;;;0.28;79.59;98208.06;5055373;28;20108;-78
2022/02/14 00:43:20;;;;;;;1.52;1.42;;;;;;;0.32;79.25;98199.63;5055190;28;20079;-78
2022/02/14 00:45:46;;;;;;;1.20;1.20;;;;;;;0.38;78.69;98204.78;5055014;28;20040;-78
2022/02/14 00:48:11;;;;;;;1.25;1.17;;;;;;;0.47;78.68;98199.81;5055089;28;20033;-77
2022/02/14 00:50:37;;;;;;;2.80;2.65;;;;;;;0.42;78.54;98196.38;5055131;28;20103;-78
2022/02/14 00:53:04;;;;;;;1.65;1.55;;;;;;;0.71;75.77;98189.91;5055009;28;20032;-77
2022/02/14 00:55:30;;;;;;;0.95;0.95;;;;;;;0.82;74.99;98196.84;5054960;28;20059;-78
2022/02/14 00:57:55;;;;;;;3.13;2.08;;;;;;;1.00;75.55;98197.03;5055023;28;20021;-78
2022/02/14 05:15:35;;;;;;;0.60;0.60;;;;;;;0.63;76.82;97992.72;5858974;23;20039;-70
2022/02/14 05:18:01;;;;;;;2.03;1.92;;;;;;;0.62;76.46;97985.03;4975728;28;20043;-70
2022/02/14 05:20:26;;;;;;;1.02;1.02;;;;;;;0.64;76.43;97986.78;4975931;28;20034;-70
2022/02/14 05:22:52;;;;;;;1.40;1.40;;;;;;;0.61;76.79;97988.44;4975955;28;20098;-71
2022/02/14 05:25:17;;;;;;;0.98;0.98;;;;;;;0.64;76.92;97994.44;4974648;28;20543;-70
2022/02/14 05:27:42;;;;;;;1.10;1.10;;;;;;;0.54;77.28;97987.53;4996595;23;20796;-78
2022/02/14 05:30:08;;;;;;;0.70;0.70;;;;;;;0.55;77.71;97994.34;4907576;29;20049;-79
2022/02/14 05:32:34;;;;;;;2.15;1.00;;;;;;;0.53;78.05;97990.91;4943880;28;20428;-70
2022/02/14 05:34:59;;;;;;;1.95;1.85;;;;;;;0.52;78.43;97989.22;4967491;28;20026;-70
2022/02/14 05:37:24;;;;;;;0.80;0.80;;;;;;;0.50;78.71;97990.91;4973804;28;20027;-69
2022/02/14 05:39:50;;;;;;;1.98;1.77;;;;;;;0.45;78.76;97992.56;4956413;29;20135;-70
2022/02/14 05:42:16;;;;;;;1.52;1.52;;;;;;;0.48;78.86;97990.00;4956366;29;20113;-70
2022/02/14 05:44:41;;;;;;;1.27;1.27;;;;;;;0.49;78.70;97984.97;4956290;29;20038;-70
2022/02/14 05:47:07;;;;;;;0.98;0.98;;;;;;;0.44;79.13;97990.84;4956075;29;20035;-72
2022/02/14 05:49:32;;;;;;;1.10;1.10;;;;;;;0.50;79.16;97996.00;4955913;28;20487;-71
2022/02/14 05:51:58;;;;;;;1.13;1.13;;;;;;;0.41;79.03;97993.38;4956044;29;20114;-70
2022/02/14 05:54:23;;;;;;;0.63;0.63;;;;;;;0.44;79.10;97995.94;4956021;29;20031;-71
2022/02/14 05:56:48;;;;;;;0.93;0.90;;;;;;;0.39;78.89;97993.34;4955806;29;20034;-70
2022/02/14 05:59:14;;;;;;;0.85;0.85;;;;;;;0.44;78.72;97996.81;4955848;28;20063;-69
2022/02/14 06:01:39;;;;;;;2.28;1.48;;;;;;;0.42;78.31;97995.06;4955688;29;20031;-79
2022/02/14 06:04:04;;;;;;;10.32;1.20;;;;;;;0.40;77.99;97994.22;4944372;29;20031;-80
2022/02/14 06:06:30;;;;;;;2.30;2.10;;;;;;;0.39;77.92;97997.59;4952136;29;20031;-79
2022/02/14 06:08:55;;;;;;;0.77;0.77;;;;;;;0.38;78.37;97996.72;4955827;28;20535;-79
2022/02/14 06:11:21;;;;;;;0.75;0.75;;;;;;;0.35;79.10;98003.50;4955865;29;20055;-79
2022/02/14 06:13:46;;;;;;;0.90;0.90;;;;;;;0.33;78.41;98007.72;4955612;29;20023;-79
2022/02/14 06:16:12;;;;;;;0.80;0.80;;;;;;;0.34;78.71;98000.09;4955424;28;20023;-78
2022/02/14 06:18:37;;;;;;;1.25;1.20;;;;;;;0.39;78.65;98002.69;4954420;28;20027;-79
2022/02/14 06:21:03;;;;;;;1.58;1.50;;;;;;;0.51;78.87;98002.78;4955233;29;20027;-79
2022/02/14 06:23:28;;;;;;;1.48;1.40;;;;;;;0.43;77.82;98004.41;4955379;29;20031;-79
2022/02/14 06:25:54;;;;;;;3.10;2.63;;;;;;;0.49;77.61;98010.44;4955136;29;20110;-79
2022/02/14 06:28:19;;;;;;;1.20;1.20;;;;;;;0.53;77.59;98011.31;4955179;28;20027;-77
2022/02/14 06:30:46;;;;;;;6.35;2.35;;;;;;;0.60;77.55;98005.44;4955222;29;20031;-77
2022/02/14 06:33:13;;;;;;;1.95;1.77;;;;;;;0.74;77.53;98013.22;4948108;29;20026;-79
2022/02/14 06:35:39;;;;;;;0.75;0.75;;;;;;;0.69;76.71;98002.97;4947147;29;20276;-79
2022/02/14 06:38:04;;;;;;;0.95;0.88;;;;;;;0.76;76.64;98003.84;4954901;28;20039;-79
2022/02/14 06:40:30;;;;;;;1.90;1.83;;;;;;;0.71;76.39;98006.38;4955111;29;20110;-80
2022/02/14 06:42:55;;;;;;;0.90;0.90;;;;;;;0.80;76.06;98014.94;4955134;29;20163;-79
2022/02/14 06:45:20;;;;;;;4.82;1.85;;;;;;;0.87;75.77;98006.50;4954986;29;20031;-79
2022/02/14 06:47:46;;;;;;;1.20;1.20;;;;;;;0.92;75.47;98008.25;4954765;28;20059;-79
2022/02/14 06:50:12;;;;;;;1.73;1.63;;;;;;;0.98;75.67;98010.00;4954875;29;20027;-80
2022/02/14 06:52:38;;;;;;;1.52;1.52;;;;;;;0.97;75.09;98010.84;4954860;29;20491;-79
2022/02/14 06:55:06;;;;;;;0.93;0.93;;;;;;;0.93;75.09;98004.00;4954759;29;20035;-80
2022/02/14 06:57:31;;;;;;;1.05;0.98;;;;;;;1.01;74.39;98012.56;4954452;28;20484;-80
2022/02/14 06:59:57;;;;;;;1.17;1.13;;;;;;;1.14;74.12;98006.69;4954656;29;20027;-79
2022/02/14 07:02:23;;;;;;;1.45;1.42;;;;;;;1.19;73.57;98010.13;4948295;29;20024;-79
2022/02/14 07:04:49;;;;;;;1.33;1.33;;;;;;;1.28;73.31;98012.75;4945536;29;20360;-79
2022/02/14 07:07:18;;;;;;;1.10;1.10;;;;;;;1.26;72.63;98011.91;4954300;28;20027;-79
2022/02/14 07:09:44;;;;;;;;;;;;;;;1.25;72.13;98010.16;4955470;29;20019;-79
2022/02/14 07:12:09;;;;;;;0.75;0.75;;;;;;;1.36;72.85;98014.50;4954425;29;19957;-70
2022/02/14 07:14:35;;;;;;;1.05;1.05;;;;;;;1.39;72.66;98012.81;4954572;29;20410;-70
2022/02/14 07:17:00;;;;;;;2.38;1.15;;;;;;;1.33;71.98;98022.13;4954198;29;20031;-70
2022/02/14 07:19:25;;;;;;;0.73;0.73;;;;;;;1.41;72.15;98020.50;4954256;28;20443;-70
2022/02/14 07:21:51;;;;;;;0.80;0.80;;;;;;;1.26;72.28;98011.91;4954289;29;20455;-70
2022/02/14 07:24:16;;;;;;;1.10;1.10;;;;;;;1.35;71.76;98021.28;4954422;29;20027;-69
2022/02/14 07:26:41;;;;;;;1.17;0.95;;;;;;;1.39;71.50;98011.97;4954250;29;20499;-69
2022/02/14 07:29:06;;;;;;;1.00;1.00;;;;;;;1.29;71.78;98017.00;4953622;28;20074;-69
2022/02/14 07:31:32;;;;;;;1.73;1.65;;;;;;;1.23;70.94;98014.41;4954306;29;20024;-69
2022/02/14 07:33:57;;;;;;;1.50;1.40;;;;;;;1.27;70.88;98021.25;4943184;29;20477;-71
2022/02/14 07:36:22;;;;;;;1.77;1.70;;;;;;;1.35;70.67;98020.44;4949582;29;20106;-69
2022/02/14 07:38:48;;;;;;;1.25;1.20;;;;;;;1.40;70.69;98028.97;4954000;28;20027;-69
2022/02/14 07:41:14;;;;;;;0.75;0.75;;;;;;;1.31;71.46;98024.69;4954254;29;20027;-77
2022/02/14 07:43:39;;;;;;;0.95;0.95;;;;;;;1.45;71.08;98032.41;4954008;29;20038;-77
2022/02/14 07:46:04;;;;;;;1.50;1.40;;;;;;;1.37;71.49;98028.97;4953897;29;20110;-77
2022/02/14 07:48:30;;;;;;;2.28;1.10;;;;;;;1.48;71.44;98017.13;4953828;28;20019;-77
2022/02/14 07:50:55;;;;;;;1.30;1.20;;;;;;;1.61;70.68;98018.06;4954026;29;20035;-69
2022/02/14 07:53:20;;;;;;;0.73;0.73;;;;;;;1.87;68.98;98016.47;4953975;29;20034;-69
2022/02/14 07:55:46;;;;;;;1.00;1.00;;;;;;;2.15;67.75;98025.09;4953880;29;20028;-69
2022/02/14 07:58:11;;;;;;;1.95;1.85;;;;;;;2.46;67.83;98012.38;4953792;28;20429;-69
2022/02/14 08:00:37;;;;;;;0.90;0.90;;;;;;;2.68;65.81;98013.25;4952685;29;20054;-69
2022/02/14 08:03:03;;;;;;;4.85;2.95;;;;;;;2.86;65.64;98018.41;4946559;29;20027;-69
2022/02/14 08:05:28;;;;;;;1.08;1.08;;;;;;;3.02;65.58;98009.00;4945784;29;20035;-70
2022/02/14 08:07:53;;;;;;;0.98;0.98;;;;;;;3.21;64.07;98003.03;4953601;28;20393;-69
2022/02/14 08:10:19;;;;;;;0.85;0.85;;;;;;;3.38;64.45;98002.13;4953769;29;20027;-69
2022/02/14 08:12:44;;;;;;;1.65;1.50;;;;;;;3.52;63.90;98001.25;4952842;29;20038;-69
2022/02/14 08:15:09;;;;;;;1.75;1.65;;;;;;;3.96;63.64;98001.94;4953680;29;20031;-69
2022/02/14 08:17:35;;;;;;;3.45;1.88;;;;;;;5.03;59.49;97996.13;4953472;28;20023;-69
2022/02/14 08:20:01;;;;;;;1.95;1.75;;;;;;;6.72;53.27;97980.44;4953487;29;20020;-69
2022/02/14 08:22:27;;;;;;;2.45;2.25;;;;;;;8.71;47.98;97977.44;4953763;29;20495;-69
2022/02/14 08:24:53;;;;;;;1.88;1.77;;;;;;;10.16;43.15;97964.97;4953650;29;20034;-69
2022/02/14 08:27:19;;;;;;;2.75;2.13;;;;;;;11.55;40.46;97957.91;4953316;28;20027;-76
2022/02/14 08:29:45;;;;;;;4.38;1.58;;;;;;;13.05;37.16;97956.56;4953641;29;20433;-77
2022/02/14 08:32:14;;;;;;;2.55;1.50;;;;;;;12.60;36.81;97960.09;4949111;29;20034;-77
2022/02/14 08:34:41;;;;;;;1.63;1.53;;;;;;;12.43;37.14;97971.16;4943504;29;20481;-77
2022/02/14 08:37:07;;;;;;;13.93;2.08;;;;;;;12.57;36.54;97975.81;4953407;29;20038;-77
2022/02/14 08:39:33;;;;;;;1.75;1.65;;;;;;;12.02;36.66;97970.97;4953630;28;20031;-77
2022/02/14 08:41:58;;;;;;;1.52;1.42;;;;;;;13.12;35.89;97964.06;4956578;29;20023;-77
2022/02/14 08:44:23;;;;;;;0.93;0.93;;;;;;;15.47;32.21;97951.53;4957259;29;20034;-77
2022/02/14 08:46:49;;;;;;;1.75;1.25;;;;;;;14.54;31.24;97958.72;4956861;29;20027;-77
2022/02/14 08:49:14;;;;;;;2.30;1.02;;;;;;;14.43;32.41;97948.78;4957046;28;20377;-77
2022/02/14 08:51:40;;;;;;;2.25;1.67;;;;;;;13.76;32.23;97955.28;4957073;29;20026;-77
2022/02/14 08:54:05;;;;;;;1.70;1.02;;;;;;;15.58;31.04;97938.78;4957036;29;20047;-79
2022/02/14 08:56:30;;;;;;;1.23;1.13;;;;;;;15.09;31.01;97946.47;4956806;29;20039;-79
2022/02/14 08:58:55;;;;;;;1.67;1.52;;;;;;;16.10;30.15;97946.53;4956931;28;20019;-78
2022/02/14 09:01:22;;;;;;;1.52;1.30;;;;;;;14.67;31.72;97948.56;4956802;29;20111;-78
2022/02/14 09:03:47;;;;;;;3.55;2.28;;;;;;;15.00;31.56;97941.72;4947334;29;20027;-79
2022/02/14 09:06:13;;;;;;;2.30;1.55;;;;;;;17.21;29.33;97931.59;4950873;29;20023;-79
2022/02/14 09:08:38;;;;;;;2.60;1.27;;;;;;;15.68;30.32;97934.78;4956797;28;20110;-79
2022/02/14 09:11:04;;;;;;;3.25;1.70;;;;;;;17.21;28.90;97926.34;4956775;29;20054;-79
2022/02/14 09:13:32;;;;;;;1.83;1.20;;;;;;;16.81;28.47;97926.94;4956744;29;20030;-79
2022/02/14 09:15:58;;;;;;;1.25;1.15;;;;;;;17.81;28.23;97925.41;4956517;29;20500;-79
2022/02/14 09:18:24;;;;;;;1.80;1.10;;;;;;;19.19;25.57;97920.09;4956399;28;20027;-79
2022/02/14 09:20:49;;;;;;;1.25;0.98;;;;;;;19.97;25.04;97927.09;4956628;29;20053;-78
2022/02/14 09:23:15;;;;;;;1.00;0.98;;;;;;;21.09;22.95;97919.91;4956503;29;20035;-79
2022/02/14 09:25:41;;;;;;;1.73;1.15;;;;;;;21.63;22.81;97914.06;4956630;29;20059;-79
2022/02/14 09:28:07;;;;;;;2.78;1.52;;;;;;;22.01;22.26;97907.63;4956225;28;20226;-79
2022/02/14 09:30:34;;;;;;;2.83;1.83;;;;;;;19.80;24.56;97911.66;4939348;29;20028;-79
2022/02/14 09:33:00;;;;;;;1.20;0.93;;;;;;;21.25;23.61;97907.25;4949092;29;20115;-79
2022/02/14 09:35:26;;;;;;;3.42;1.73;;;;;;;21.25;24.03;97907.25;4948327;29;20113;-79
2022/02/14 09:38:03;;;;;;;2.00;1.23;;;;;;;22.02;22.75;97904.84;4956045;28;20027;-79
2022/02/14 09:40:30;;;;;;;3.45;1.75;;;;;;;23.01;21.95;97903.09;4956295;29;20035;-79
2022/02/14 09:42:58;;;;;;;1.63;1.52;;;;;;;22.59;21.97;97905.63;4956095;29;20385;-79
2022/02/14 09:45:25;;;;;;;1.17;0.95;;;;;;;21.93;22.78;97904.72;4956213;29;20101;-79
2022/02/14 09:48:03;;;;;;;1.42;1.02;;;;;;;19.47;25.65;97905.94;4956045;28;20023;-79
2022/02/14 09:50:31;;;;;;;6.10;1.33;;;;;;;17.79;28.18;97915.94;4955928;29;20078;-79
2022/02/14 09:52:57;;;;;;;1.73;1.15;;;;;;;16.85;29.18;97918.00;4955627;28;20027;-80
2022/02/14 09:55:23;;;;;;;1.83;1.40;;;;;;;14.75;32.58;97915.16;4955913;29;20031;-79
2022/02/14 09:57:49;;;;;;;1.65;1.38;;;;;;;13.70;35.29;97910.47;4955669;28;20392;-79
2022/02/14 10:00:15;;;;;;;0.85;0.85;;;;;;;13.21;36.10;97915.16;4955842;29;20023;-79
2022/02/14 10:02:40;;;;;;;2.80;1.10;;;;;;;11.94;38.09;97910.72;4948711;29;20123;-79
2022/02/14 10:05:12;;;;;;;6.30;2.50;;;;;;;11.68;38.84;97910.78;4947761;29;20027;-79
2022/02/14 10:07:46;;;;;;;2.55;1.50;;;;;;;12.04;39.04;97903.41;4955660;28;20033;-79
2022/02/14 10:10:21;;;;;;;0.80;0.80;;;;;;;11.93;39.11;97908.16;4955677;29;20102;-79
2022/02/14 10:12:55;;;;;;;5.93;1.50;;;;;;;11.92;39.18;97914.25;4955796;29;20066;-78
2022/02/14 10:15:22;;;;;;;1.10;1.10;;;;;;;12.12;39.56;97916.09;4955740;29;20078;-79
2022/02/14 10:17:50;;;;;;;3.72;1.25;;;;;;;12.03;40.10;97912.94;4955265;28;20444;-78
2022/02/14 10:20:21;;;;;;;1.55;1.30;;;;;;;12.26;39.91;97906.03;4955501;29;20034;-78
2022/02/14 10:23:02;;;;;;;1.10;1.00;;;;;;;12.16;39.62;97915.06;4955522;29;20050;-78
2022/02/14 10:25:32;;;;;;;1.52;1.35;;;;;;;12.16;40.70;97912.47;4955550;29;20039;-79
2022/02/14 10:28:21;;;;;;;1.45;1.38;;;;;;;11.83;38.89;97925.81;4955162;28;20488;-79
2022/02/14 10:31:01;;;;;;;1.00;1.00;;;;;;;11.99;37.21;97915.69;4954037;29;20117;-79
2022/02/14 10:33:48;;;;;;;1.02;0.82;;;;;;;11.99;38.76;97921.75;4948141;29;20059;-78
2022/02/14 10:36:23;;;;;;;0.57;0.57;;;;;;;11.96;39.14;97916.69;4943974;29;20070;-79
2022/02/14 10:38:49;;;;;;;1.20;1.15;;;;;;;11.80;37.96;97920.72;4955135;28;20100;-78
2022/02/14 10:41:15;;;;;;;2.05;1.35;;;;;;;12.01;38.97;97912.16;4955059;29;20039;-78
2022/02/14 10:43:41;;;;;;;2.50;0.90;;;;;;;12.19;37.24;97917.56;4955128;29;20031;-78
2022/02/14 10:46:08;;;;;;;4.70;1.15;;;;;;;12.37;37.00;97910.78;4954813;29;20058;-79
2022/02/14 10:48:43;;;;;;;0.77;0.77;;;;;;;12.75;36.83;97909.25;4954954;28;20019;-78
2022/02/14 10:51:16;;;;;;;0.73;0.73;;;;;;;12.84;37.43;97901.94;4954942;29;20027;-79
2022/02/14 10:53:51;;;;;;;2.33;2.10;;;;;;;12.71;37.31;97894.69;4954936;29;20393;-79
2022/02/14 10:56:18;;;;;;;1.15;1.08;;;;;;;12.78;37.89;97894.41;4954729;29;20031;-78
2022/02/14 10:58:46;;;;;;;1.30;1.02;;;;;;;12.70;38.27;97893.00;4954706;28;20111;-78
2022/02/14 11:01:12;;;;;;;0.73;0.73;;;;;;;12.50;38.80;97892.06;4953482;29;20031;-79
2022/02/14 11:03:39;;;;;;;1.27;0.80;;;;;;;12.47;38.76;97886.13;4945967;29;20089;-78
2022/02/14 11:06:05;;;;;;;1.38;1.27;;;;;;;12.56;38.55;97891.81;4946605;29;20035;-78
2022/02/14 11:08:35;;;;;;;1.60;1.05;;;;;;;12.70;39.17;97887.81;4954477;28;20074;-79
2022/02/14 11:11:02;;;;;;;1.75;1.00;;;;;;;13.23;38.28;97882.16;4937419;29;20030;-79
2022/02/14 11:13:30;;;;;;;1.38;0.88;;;;;;;13.51;38.62;97877.44;4954520;29;20062;-78
2022/02/14 11:15:55;;;;;;;1.48;1.20;;;;;;;13.81;37.63;97874.38;4954417;29;20061;-79
2022/02/14 11:18:26;;;;;;;1.25;1.20;;;;;;;13.82;37.44;97870.84;4954276;28;20055;-79
2022/02/14 11:20:52;;;;;;;0.63;0.63;;;;;;;13.61;37.71;97868.31;4954467;29;20019;-79
2022/02/14 11:23:19;;;;;;;1.00;0.88;;;;;;;13.02;40.14;97858.72;4954337;29;20030;-79
2022/02/14 11:25:47;;;;;;;1.88;0.93;;;;;;;13.27;39.83;97857.69;4954257;29;20488;-79
2022/02/14 11:28:31;;;;;;;2.33;1.13;;;;;;;13.31;39.40;97851.47;4954555;28;20445;-79
2022/02/14 11:31:11;;;;;;;1.38;0.65;;;;;;;13.95;38.42;97851.16;4954361;29;20025;-79
2022/02/14 11:33:39;;;;;;;1.20;0.80;;;;;;;15.03;37.40;97841.56;4946243;29;20034;-79
2022/02/14 11:36:07;;;;;;;0.55;0.55;;;;;;;15.80;35.24;97849.69;4947259;29;20030;-79
2022/02/14 11:38:47;;;;;;;1.33;0.82;;;;;;;15.35;37.26;97839.91;4954008;28;20034;-79
2022/02/14 11:41:24;;;;;;;1.13;0.60;;;;;;;14.75;38.51;97847.34;4954167;29;20027;-79
2022/02/14 11:43:49;;;;;;;0.47;0.47;;;;;;;13.66;41.27;97841.22;4953889;29;20027;-79
2022/02/14 11:46:19;;;;;;;0.98;0.60;;;;;;;13.18;43.77;97839.84;4953930;29;20039;-79
2022/02/14 11:49:02;;;;;;;0.50;0.50;;;;;;;14.05;42.77;97833.31;4954160;28;20091;-79
2022/02/14 11:51:37;;;;;;;0.32;0.32;;;;;;;13.74;43.51;97826.94;4954032;29;20058;-78
2022/02/14 11:54:05;;;;;;;0.60;0.60;;;;;;;13.56;44.86;97833.84;4954013;29;20033;-79
2022/02/14 11:56:32;;;;;;;1.40;0.80;;;;;;;13.34;45.27;97825.28;4953753;29;20425;-79
2022/02/14 11:59:16;;;;;;;0.73;0.70;;;;;;;13.25;45.47;97833.53;4953915;28;20106;-80
2022/02/14 12:01:44;;;;;;;0.65;0.65;;;;;;;12.84;46.63;97823.09;4953317;29;20023;-79
2022/02/14 12:04:41;;;;;;;2.58;0.88;;;;;;;12.54;47.36;97820.88;4942441;29;20023;-79
2022/02/14 12:07:20;;;;;;;2.85;0.82;;;;;;;12.45;47.79;97825.59;4915668;29;20028;-78
2022/02/14 12:09:57;;;;;;;0.65;0.65;;;;;;;12.36;48.47;97826.81;4915725;29;20016;-79
2022/02/14 12:13:03;;;;;;;0.50;0.50;;;;;;;12.52;48.94;97827.91;4915719;29;20034;-79
2022/02/14 12:21:12;;;;;;;0.43;0.43;;;;;;;12.43;49.55;97832.63;4911507;29;20039;-81
2022/02/14 12:23:45;;;;;;;0.40;0.40;;;;;;;12.30;49.62;97837.47;4919654;29;20035;-80
2022/02/14 12:26:12;;;;;;;0.68;0.65;;;;;;;12.14;49.77;97831.22;4919434;29;20039;-78
2022/02/14 12:28:41;;;;;;;0.43;0.43;;;;;;;12.15;50.02;97832.88;4917875;29;20383;-79
2022/02/14 12:31:07;;;;;;;0.85;0.55;;;;;;;12.13;49.64;97832.09;4919296;29;20034;-79
2022/02/14 12:33:34;;;;;;;1.13;0.80;;;;;;;12.17;50.37;97831.91;4942222;29;20023;-74
2022/02/14 12:36:02;;;;;;;1.02;1.02;;;;;;;12.08;50.26;97832.25;4949536;29;20024;-79
2022/02/14 12:38:33;;;;;;;1.75;0.77;;;;;;;11.99;50.31;97830.91;4957124;28;20134;-78
2022/02/14 12:41:07;;;;;;;0.80;0.80;;;;;;;12.07;50.25;97826.22;4957278;29;20106;-80
2022/02/14 12:43:47;;;;;;;0.73;0.73;;;;;;;12.04;51.13;97826.38;4957337;29;20131;-79
2022/02/14 12:46:13;;;;;;;3.50;0.63;;;;;;;11.98;51.17;97826.59;4957065;29;20030;-79
2022/02/14 12:48:44;;;;;;;0.82;0.82;;;;;;;11.98;51.16;97821.41;4955950;28;20030;-80
2022/02/14 12:51:12;;;;;;;0.85;0.85;;;;;;;11.99;50.97;97814.44;4957165;29;20031;-79
2022/02/14 12:53:43;;;;;;;1.45;1.05;;;;;;;11.93;51.09;97812.94;4939872;29;20027;-79
2022/02/14 12:56:18;;;;;;;0.77;0.77;;;;;;;11.89;50.48;97816.56;4956905;29;20383;-79
2022/02/14 12:59:04;;;;;;;0.85;0.63;;;;;;;11.89;50.88;97816.56;4956926;28;20436;-78
2022/02/14 13:01:36;;;;;;;0.47;0.47;;;;;;;11.79;51.03;97815.19;4956287;29;20047;-79
2022/02/14 13:04:04;;;;;;;0.70;0.70;;;;;;;11.75;51.39;97803.25;4945659;29;20023;-79
2022/02/14 13:06:40;;;;;;;0.57;0.57;;;;;;;11.78;51.25;97803.13;4953187;29;20063;-79
2022/02/14 13:09:27;;;;;;;1.05;0.50;;;;;;;11.81;51.27;97805.63;4956803;28;20448;-79
2022/02/14 13:11:55;;;;;;;0.80;0.80;;;;;;;11.92;51.01;97806.06;4956798;29;20058;-79
2022/02/14 13:14:42;;;;;;;3.08;0.93;;;;;;;11.97;51.25;97801.53;4956811;29;20038;-79
2022/02/14 13:17:15;;;;;;;0.70;0.70;;;;;;;11.93;51.44;97805.16;4956580;29;20525;-79
2022/02/14 13:19:51;;;;;;;0.40;0.40;;;;;;;11.86;50.92;97795.94;4956529;29;20102;-79
2022/02/14 13:22:30;;;;;;;0.50;0.50;;;;;;;11.86;51.11;97805.47;4956619;29;20027;-79
2022/02/14 13:24:58;;;;;;;0.30;0.30;;;;;;;12.06;50.91;97797.75;4956699;29;20023;-79
2022/02/14 13:27:32;;;;;;;0.55;0.55;;;;;;;12.23;50.41;97791.84;4955403;28;20266;-79
2022/02/14 13:30:06;;;;;;;0.98;0.70;;;;;;;12.29;50.56;97789.88;4956473;29;20023;-79
2022/02/14 13:32:37;;;;;;;5.35;1.20;;;;;;;12.35;50.61;97799.16;4949126;29;20031;-79
2022/02/14 13:35:07;;;;;;;0.75;0.70;;;;;;;12.30;50.60;97795.91;4948554;29;20023;-79
2022/02/14 13:37:53;;;;;;;0.60;0.60;;;;;;;12.21;51.20;97793.69;4956191;28;20382;-79
2022/02/14 13:40:23;;;;;;;0.32;0.32;;;;;;;12.00;51.79;97796.25;4956330;29;20061;-79
2022/02/14 13:43:26;;;;;;;0.52;0.52;;;;;;;11.95;52.27;97792.97;4956033;29;20024;-79
2022/02/14 13:45:53;;;;;;;0.50;0.50;;;;;;;11.99;52.53;97794.56;4951625;29;20039;-79
2022/02/14 13:48:26;;;;;;;0.50;0.50;;;;;;;11.96;52.36;97788.63;4956107;28;20602;-79
2022/02/14 13:50:55;;;;;;;0.50;0.50;;;;;;;12.06;51.79;97783.00;4956076;29;20104;-79
2022/02/14 13:53:25;;;;;;;0.52;0.52;;;;;;;12.16;51.48;97780.88;4956032;29;20069;-79
2022/02/14 13:56:05;;;;;;;;;;;;;;;12.05;52.05;97783.91;4956390;29;20114;-79
2022/02/14 13:58:31;;;;;;;1.20;1.20;;;;;;;11.96;52.72;97781.69;4955787;28;19921;-79
2022/02/14 14:00:57;;;;;;;0.30;0.30;;;;;;;11.88;52.86;97781.13;4955931;29;20031;-78
2022/02/14 14:03:25;;;;;;;0.60;0.60;;;;;;;11.87;52.45;97794.19;4948579;29;20319;-79
2022/02/14 14:05:51;;;;;;;0.47;0.47;;;;;;;11.86;52.49;97785.53;4947647;29;20054;-78
2022/02/14 14:08:35;;;;;;;0.75;0.75;;;;;;;11.87;52.41;97779.44;4955793;28;20019;-79
2022/02/14 14:11:01;;;;;;;0.52;0.52;;;;;;;11.85;52.51;97783.03;4955786;29;20031;-79
2022/02/14 14:13:56;;;;;;;3.15;0.80;;;;;;;11.79;52.82;97789.25;4955795;29;20511;-79
2022/02/14 14:16:21;;;;;;;3.30;0.68;;;;;;;11.80;53.14;97783.16;4938856;29;20039;-79
2022/02/14 14:18:47;;;;;;;0.68;0.68;;;;;;;11.78;53.37;97797.94;4955447;28;20174;-79
2022/02/14 14:21:14;;;;;;;0.65;0.65;;;;;;;11.74;53.61;97796.34;4955523;29;20476;-79
2022/02/14 14:23:41;;;;;;;2.65;1.05;;;;;;;11.65;53.92;97792.34;4955485;29;20027;-79
2022/02/14 14:26:07;;;;;;;3.97;0.80;;;;;;;11.68;53.75;97786.22;4955186;29;20027;-79
2022/02/14 14:28:35;;;;;;;0.52;0.52;;;;;;;11.65;53.60;97791.50;4955122;28;20050;-79
2022/02/14 14:31:02;;;;;;;0.45;0.43;;;;;;;11.58;53.91;97794.34;4955327;29;20031;-79
2022/02/14 14:33:28;;;;;;;0.40;0.40;;;;;;;11.57;53.85;97792.66;4948135;29;20114;-79
2022/02/14 14:35:53;;;;;;;0.50;0.50;;;;;;;11.59;54.01;97793.44;4946958;29;20053;-78
2022/02/14 14:38:19;;;;;;;0.77;0.68;;;;;;;11.55;53.53;97789.28;4954091;28;20476;-80
2022/02/14 14:40:46;;;;;;;1.85;0.63;;;;;;;11.56;54.44;97788.38;4955054;29;20023;-79
2022/02/14 14:43:12;;;;;;;0.40;0.40;;;;;;;11.54;53.84;97797.97;4955107;29;20038;-79
2022/02/14 14:45:38;;;;;;;0.40;0.40;;;;;;;11.52;54.08;97793.75;4955018;29;20035;-79
2022/02/14 14:48:03;;;;;;;0.40;0.40;;;;;;;11.36;54.79;97801.22;4953627;28;20098;-79
2022/02/14 14:50:30;;;;;;;0.75;0.75;;;;;;;11.30;54.87;97798.88;4954956;29;20051;-79
2022/02/14 14:52:57;;;;;;;0.60;0.60;;;;;;;11.31;54.84;97805.75;4955029;29;20400;-79
2022/02/14 14:55:23;;;;;;;0.95;0.77;;;;;;;11.26;55.72;97805.91;4954872;29;20496;-79
2022/02/14 14:57:48;;;;;;;4.88;0.60;;;;;;;11.25;55.84;97801.63;4954576;28;20034;-78
2022/02/14 15:00:14;;;;;;;1.48;0.90;;;;;;;11.22;56.29;97803.50;4953573;29;20062;-79
2022/02/14 15:02:39;;;;;;;0.45;0.45;;;;;;;11.16;56.74;97806.31;4947517;29;20087;-79
2022/02/14 15:05:06;;;;;;;0.50;0.50;;;;;;;11.10;57.29;97811.72;4946733;29;20023;-79
2022/02/14 15:07:31;;;;;;;0.40;0.40;;;;;;;10.99;59.33;97815.53;4954427;28;20023;-78
2022/02/14 15:09:59;;;;;;;0.47;0.47;;;;;;;10.93;59.11;97815.75;4924274;29;20134;-78
2022/02/14 15:12:24;;;;;;;0.55;0.55;;;;;;;10.91;59.73;97814.94;4937383;29;20023;-78
2022/02/14 15:14:50;;;;;;;1.23;1.02;;;;;;;10.83;60.00;97814.41;4954600;29;20078;-78
2022/02/14 15:17:15;;;;;;;2.22;0.95;;;;;;;10.83;59.99;97811.81;4954298;28;20027;-79
2022/02/14 15:19:43;;;;;;;0.50;0.50;;;;;;;10.81;60.56;97818.75;4954442;29;20469;-79
2022/02/14 15:22:09;;;;;;;0.95;0.65;;;;;;;10.81;60.53;97818.75;4954435;29;20040;-79
2022/02/14 15:24:34;;;;;;;0.40;0.40;;;;;;;10.76;60.98;97810.31;4954285;29;20019;-79
2022/02/14 15:27:00;;;;;;;0.88;0.88;;;;;;;10.69;61.13;97808.84;4954384;29;20054;-79
2022/02/14 15:29:25;;;;;;;1.98;1.50;;;;;;;10.64;61.37;97815.91;4954250;28;20023;-79
2022/02/14 15:31:51;;;;;;;0.57;0.47;;;;;;;10.71;60.79;97812.22;4952430;29;20110;-74
2022/02/14 15:34:18;;;;;;;0.50;0.50;;;;;;;10.65;61.12;97802.06;4943008;29;20090;-79
2022/02/14 15:36:44;;;;;;;1.08;0.75;;;;;;;10.88;60.22;97806.44;4952386;29;20026;-79
2022/02/14 15:39:11;;;;;;;0.50;0.50;;;;;;;10.75;61.36;97808.63;4953903;28;20437;-79
2022/02/14 15:41:38;;;;;;;0.80;0.80;;;;;;;10.66;62.62;97801.16;4954368;29;20033;-78
2022/02/14 15:44:04;;;;;;;1.85;0.65;;;;;;;10.44;63.42;97794.13;4954389;29;20023;-79
2022/02/14 15:46:29;;;;;;;0.70;0.70;;;;;;;10.58;63.15;97800.56;4953956;29;20038;-79
2022/02/14 15:48:55;;;;;;;1.38;0.75;;;;;;;10.71;61.99;97801.84;4953448;28;20023;-74
2022/02/14 15:51:20;;;;;;;0.50;0.50;;;;;;;10.43;63.61;97797.59;4953961;29;20034;-79
2022/02/14 15:53:45;;;;;;;0.77;0.77;;;;;;;10.71;62.45;97801.84;4953801;29;20019;-79
2022/02/14 15:56:12;;;;;;;0.75;0.55;;;;;;;10.41;65.19;97814.09;4954070;29;20509;-79
2022/02/14 15:58:38;;;;;;;0.50;0.50;;;;;;;10.46;65.53;97814.78;4953713;28;20027;-79
2022/02/14 16:01:04;;;;;;;0.45;0.45;;;;;;;10.21;67.41;97812.97;4953782;29;20129;-79
2022/02/14 16:03:30;;;;;;;0.90;0.90;;;;;;;10.02;68.57;97807.50;4946432;29;20451;-79